George Bush Intercontinental Houston Airport
KIAH : now visible

Airfield :











YOU CAN JOIN US ON...

 
LOGIN :

Register | Disclaimer

   EN    FR    IT 

 









Legend :    VFR   Marginal VFR   IFR   Intensive IFR   Very Intensive IFR
Visi :
Ceiling :
>= 8 km
>= 3000ft
5 to 8 km
1000 to 3000 ft
1500m to 5 km
500 to 1000 ft
800 to 1500m
200 to 500 ft
< 800m
< 200 ft
Symbols :   Thunderstorms  Fog  Heavy snow  Heavy precipitations  Wind > 20 kt






- Airport Elevation : 97 ft
- IATA code : IAH


KIAH - George Bush Intercontinental Houston

CURRENT METAR :
  • 110553Z 17005KT 10SM CLR 28/24 A2999 RMK AO2 SLP156 T02830244 10333 20283 403610244 51005

EXPIRED METARs :
  • 110453Z 17005KT 10SM FEW025 29/24 A2999 RMK AO2 SLP155 T02890244
  • 110353Z 17008KT 10SM FEW025 29/24 A2999 RMK AO2 SLP154 T02890244

TAF KIAH
Valid from the 11 at 06:00 until the 12 at 12:00 UTC


110520Z 1106/1212 17008KT P6SM FEW025
FM111500 19008KT P6SM SCT050
FM112300 17009KT P6SM FEW050
FM120300 16006KT P6SM FEW030
KZHU FIR / North America



MET'MAP, your aeronautical weather chart ! - Copyright ORBIFLY December 2007 - Disclaimer

ORBIFLY MET'MAP TEAM :

Programming & Development : Alexandra Zaïnal
Concept & original design : Baudouin d'Aumeries
Assistance for programming : Marc-Olivier Méhu
Technical & hardware support : Manuel Goepfert

Contact : metmap@orbifly.com




SOURCES & CREDITS :

   NOAA       Earth
Advisory